createdAt,value
2022-11-11T00:01:07.450Z,96711.78
2022-11-11T00:04:50.148Z,96717.03
2022-11-11T00:08:34.328Z,96701.63
2022-11-11T00:12:19.004Z,96695.34
2022-11-11T00:16:06.446Z,96719.75
2022-11-11T00:20:06.677Z,96706.44
2022-11-11T00:24:08.365Z,96712.78
2022-11-11T00:27:51.116Z,96721.72
2022-11-11T00:31:58.932Z,96724.09
2022-11-11T00:35:57.257Z,96720.25
2022-11-11T00:39:41.375Z,96727.56
2022-11-11T00:43:24.049Z,96713.84
2022-11-11T00:47:24.119Z,96712.88
2022-11-11T00:51:06.984Z,96712.56
2022-11-11T00:54:51.007Z,96700.19
2022-11-11T00:58:33.675Z,96695.66
2022-11-11T01:02:18.406Z,96691.13
2022-11-11T01:06:02.034Z,96695.94
2022-11-11T01:09:44.755Z,96678.31
2022-11-11T01:13:30.736Z,96694.81
2022-11-11T01:17:13.580Z,96682.56
2022-11-11T01:21:01.028Z,96694.97
2022-11-11T01:24:46.066Z,96698.53
2022-11-11T01:28:30.196Z,96696.34
2022-11-11T01:32:12.870Z,96694.44
2022-11-11T01:35:57.756Z,96695.28
2022-11-11T01:39:40.666Z,96684.59
2022-11-11T01:43:25.191Z,96700.00
2022-11-11T01:47:09.800Z,96698.94
2022-11-11T01:50:51.725Z,96698.13
2022-11-11T01:54:37.664Z,96695.66
2022-11-11T01:58:20.754Z,96701.44
2022-11-11T02:02:06.651Z,96689.59
2022-11-11T02:05:55.692Z,96693.44
2022-11-11T02:09:40.961Z,96692.09
2022-11-11T02:13:41.349Z,96687.13
2022-11-11T02:17:25.581Z,96694.53
2022-11-11T02:21:10.527Z,96697.16
2022-11-11T02:24:55.558Z,96701.97
2022-11-11T02:28:38.773Z,96706.50
2022-11-11T02:32:38.500Z,96695.38
2022-11-11T02:36:21.332Z,96699.25
2022-11-11T02:40:07.434Z,96702.25
2022-11-11T02:43:50.384Z,96701.59
2022-11-11T02:47:33.073Z,96701.44
2022-11-11T02:51:15.816Z,96705.00
2022-11-11T02:54:58.778Z,96713.13
2022-11-11T02:58:46.096Z,96726.72
2022-11-11T03:02:29.138Z,96727.97
2022-11-11T03:06:11.916Z,96730.84
2022-11-11T03:09:54.603Z,96729.19
2022-11-11T03:13:37.472Z,96742.91
2022-11-11T03:17:38.986Z,96744.56
2022-11-11T03:25:39.359Z,96768.19
2022-11-11T03:29:22.009Z,96772.84
2022-11-11T03:33:06.546Z,96781.63
2022-11-11T03:37:06.776Z,96780.53
2022-11-11T03:40:50.012Z,96784.34
2022-11-11T03:44:32.680Z,96781.31
2022-11-11T03:48:17.429Z,96775.53
2022-11-11T03:52:00.067Z,96783.38
2022-11-11T03:55:43.197Z,96772.09
2022-11-11T03:59:25.843Z,96768.41
2022-11-11T04:03:28.491Z,96772.25
2022-11-11T04:07:35.888Z,96774.88
2022-11-11T04:11:24.048Z,96766.22
2022-11-11T04:15:24.771Z,96764.44
2022-11-11T04:19:25.151Z,96752.75
2022-11-11T04:23:09.550Z,96750.81
2022-11-11T04:26:52.209Z,96737.09
2022-11-11T04:30:34.899Z,96736.00
2022-11-11T04:34:17.591Z,96741.22
2022-11-11T04:38:14.140Z,96741.22
2022-11-11T04:42:13.382Z,96742.03
2022-11-11T04:45:59.420Z,96743.81
2022-11-11T04:49:42.140Z,96744.78
2022-11-11T04:53:25.231Z,96755.19
2022-11-11T04:57:08.614Z,96757.13
2022-11-11T05:00:51.681Z,96760.53
2022-11-11T05:04:33.320Z,96755.19
2022-11-11T05:08:33.672Z,96748.34
2022-11-11T05:12:17.675Z,96753.69
2022-11-11T05:16:18.047Z,96743.13
2022-11-11T05:20:18.543Z,96756.44
2022-11-11T05:24:18.804Z,96759.31
2022-11-11T05:28:02.792Z,96761.22
2022-11-11T05:31:51.464Z,96763.66
2022-11-11T05:35:36.538Z,96756.53
2022-11-11T05:39:19.160Z,96760.53
2022-11-11T05:43:03.192Z,96782.91
2022-11-11T05:46:45.832Z,96793.59
2022-11-11T05:50:28.490Z,96792.34
2022-11-11T05:54:11.240Z,96804.41
2022-11-11T05:57:53.834Z,96807.72
2022-11-11T06:01:38.616Z,96810.59
2022-11-11T06:05:21.348Z,96809.19
2022-11-11T06:09:04.377Z,96812.06
2022-11-11T06:13:00.994Z,96817.97
2022-11-11T06:16:45.058Z,96821.69
2022-11-11T06:20:28.066Z,96827.75
2022-11-11T06:24:10.731Z,96824.53
2022-11-11T06:27:53.385Z,96831.28
2022-11-11T06:31:36.108Z,96838.19
2022-11-11T06:35:20.193Z,96841.63
2022-11-11T06:39:02.880Z,96846.09
2022-11-11T06:42:45.515Z,96849.53
2022-11-11T06:46:28.287Z,96853.81
2022-11-11T06:50:11.258Z,96857.94
2022-11-11T06:53:55.380Z,96863.72
2022-11-11T06:57:38.219Z,96873.91
2022-11-11T07:01:20.912Z,96872.81
2022-11-11T07:05:03.703Z,96880.66
2022-11-11T07:08:46.357Z,96891.94
2022-11-11T07:12:30.646Z,96890.72
2022-11-11T07:16:13.407Z,96898.00
2022-11-11T07:19:56.364Z,96916.56
2022-11-11T07:23:41.983Z,96922.34
2022-11-11T07:27:24.825Z,96921.00
2022-11-11T07:31:08.852Z,96916.06
2022-11-11T07:34:51.562Z,96922.41
2022-11-11T07:38:34.268Z,96924.47
2022-11-11T07:42:31.040Z,96919.69
2022-11-11T07:46:16.026Z,96919.69
2022-11-11T07:50:03.112Z,96921.59
2022-11-11T07:53:49.997Z,96915.81
2022-11-11T07:57:33.129Z,96926.53
2022-11-11T08:01:17.264Z,96925.59
2022-11-11T08:05:00.053Z,96916.94
2022-11-11T08:08:42.808Z,96919.81
2022-11-11T08:12:42.935Z,96919.09
2022-11-11T08:16:27.011Z,96930.38
2022-11-11T08:20:13.757Z,96921.00
2022-11-11T08:27:59.428Z,96909.41
2022-11-11T08:31:43.669Z,96908.84
2022-11-11T08:35:27.057Z,96906.63
2022-11-11T08:39:09.745Z,96906.06
2022-11-11T08:42:52.420Z,96905.47
2022-11-11T08:46:35.134Z,96898.00
2022-11-11T08:50:19.441Z,96895.50
2022-11-11T08:54:02.137Z,96890.50
2022-11-11T08:57:45.034Z,96900.38
2022-11-11T09:01:27.737Z,96885.63
2022-11-11T09:05:10.814Z,96886.84
2022-11-11T09:08:54.882Z,96877.72
2022-11-11T09:12:37.587Z,96877.66
2022-11-11T09:16:20.328Z,96873.03
2022-11-11T09:20:45.879Z,96876.25
2022-11-11T09:24:29.903Z,96875.44
2022-11-11T09:28:13.148Z,96873.94
2022-11-11T09:31:55.862Z,96870.78
2022-11-11T09:35:38.826Z,96881.38
2022-11-11T09:39:21.611Z,96875.31
2022-11-11T09:43:11.561Z,96882.66
2022-11-11T09:46:59.524Z,96880.75
2022-11-11T09:50:43.008Z,96887.09
2022-11-11T09:54:32.225Z,96883.06
2022-11-11T09:58:20.413Z,96888.88
2022-11-11T10:02:03.531Z,96891.88
2022-11-11T10:05:59.345Z,96887.97
2022-11-11T10:09:46.524Z,96891.75
2022-11-11T10:13:32.564Z,96893.94
2022-11-11T10:17:20.138Z,96896.25
2022-11-11T10:21:07.018Z,96886.41
2022-11-11T10:24:58.909Z,96880.16
2022-11-11T10:28:44.723Z,96876.84
2022-11-11T10:32:28.848Z,96878.47
2022-11-11T10:36:17.389Z,96881.09
2022-11-11T10:40:09.394Z,96880.38
2022-11-11T10:43:54.193Z,96882.66
2022-11-11T10:47:45.867Z,96881.63
2022-11-11T10:51:31.995Z,96884.88
2022-11-11T10:55:19.509Z,96879.59
2022-11-11T10:59:10.598Z,96872.69
2022-11-11T11:02:59.450Z,96875.97
2022-11-11T11:06:45.406Z,96886.47
2022-11-11T11:10:31.332Z,96890.69
2022-11-11T11:14:18.918Z,96897.91
2022-11-11T11:18:06.189Z,96887.59
2022-11-11T11:21:53.596Z,96890.50
2022-11-11T11:25:36.237Z,96881.47
2022-11-11T11:29:29.757Z,96878.72
2022-11-11T11:33:12.441Z,96880.75
2022-11-11T11:37:01.082Z,96883.44
2022-11-11T11:40:51.525Z,96875.63
2022-11-11T11:44:36.955Z,96862.94
2022-11-11T11:48:32.317Z,96861.19
2022-11-11T11:52:20.502Z,96865.31
2022-11-11T11:56:12.131Z,96854.00
2022-11-11T12:00:00.735Z,96851.34
2022-11-11T12:03:56.549Z,96850.09
2022-11-11T12:07:57.417Z,96849.09
2022-11-11T12:11:43.861Z,96847.63
2022-11-11T12:15:34.788Z,96852.38
2022-11-11T12:19:31.430Z,96853.72
2022-11-11T12:23:40.077Z,96856.50
2022-11-11T12:27:28.601Z,96852.28
2022-11-11T12:31:26.293Z,96848.28
2022-11-11T12:35:26.585Z,96842.25
2022-11-11T12:39:24.269Z,96835.09
2022-11-11T12:43:14.911Z,96835.16
2022-11-11T12:47:21.281Z,96834.03
2022-11-11T12:51:12.069Z,96841.94
2022-11-11T12:55:03.638Z,96827.34
2022-11-11T12:58:50.366Z,96829.34
2022-11-11T13:02:54.160Z,96837.06
2022-11-11T13:06:54.343Z,96838.84
2022-11-11T13:10:45.817Z,96839.19
2022-11-11T13:14:42.199Z,96839.78
2022-11-11T13:18:28.737Z,96845.44
2022-11-11T13:22:18.609Z,96835.63
2022-11-11T13:26:05.978Z,96835.84
2022-11-11T13:30:07.528Z,96837.31
2022-11-11T13:33:53.082Z,96834.72
2022-11-11T13:37:36.266Z,96836.59
2022-11-11T13:41:25.475Z,96829.31
2022-11-11T13:45:09.973Z,96839.19
2022-11-11T13:48:54.127Z,96830.38
2022-11-11T13:52:37.842Z,96830.09
2022-11-11T13:56:26.027Z,96839.41
2022-11-11T14:00:25.983Z,96849.34
2022-11-11T14:04:10.865Z,96843.78
2022-11-11T14:07:57.712Z,96852.72
2022-11-11T14:11:40.462Z,96852.28
2022-11-11T14:15:38.241Z,96869.31
2022-11-11T14:19:32.811Z,96866.84
2022-11-11T14:23:33.838Z,96871.81
2022-11-11T14:27:18.447Z,96869.69
2022-11-11T14:31:32.429Z,96862.47
2022-11-11T14:35:22.489Z,96861.53
2022-11-11T14:39:14.500Z,96852.41
2022-11-11T14:42:57.316Z,96864.81
2022-11-11T14:47:19.077Z,96858.44
2022-11-11T14:51:03.244Z,96848.59
2022-11-11T14:54:54.344Z,96852.19
2022-11-11T14:58:37.089Z,96852.72
2022-11-11T15:02:32.184Z,96848.91
2022-11-11T15:06:19.858Z,96857.63
2022-11-11T15:10:28.395Z,96856.78
2022-11-11T15:14:22.566Z,96868.81
2022-11-11T15:18:10.371Z,96871.72
2022-11-11T15:22:03.496Z,96860.09
2022-11-11T15:25:51.296Z,96871.44
2022-11-11T15:29:50.938Z,96866.94
2022-11-11T15:33:45.899Z,96866.72
2022-11-11T15:37:30.984Z,96862.19
2022-11-11T15:41:28.377Z,96867.56
2022-11-11T15:45:21.414Z,96864.03
2022-11-11T15:49:04.619Z,96876.28
2022-11-11T15:52:55.684Z,96889.16
2022-11-11T15:56:39.328Z,96882.97
2022-11-11T16:00:32.923Z,96892.56
2022-11-11T16:04:53.982Z,96895.88
2022-11-11T16:08:27.434Z,96907.72
2022-11-11T16:12:11.830Z,96905.13
2022-11-11T16:16:07.499Z,96905.13
2022-11-11T16:19:50.938Z,96904.47
2022-11-11T16:23:35.862Z,96902.84
2022-11-11T16:27:20.896Z,96906.13
2022-11-11T16:31:21.991Z,96916.00
2022-11-11T16:35:24.356Z,96907.28
2022-11-11T16:39:21.440Z,96903.34
2022-11-11T16:43:22.973Z,96903.84
2022-11-11T16:47:07.593Z,96901.88
2022-11-11T16:50:55.509Z,96902.31
2022-11-11T16:54:41.972Z,96902.66
2022-11-11T16:58:24.726Z,96903.31
2022-11-11T17:02:16.421Z,96898.16
2022-11-11T17:06:00.653Z,96887.63
2022-11-11T17:09:44.670Z,96882.03
2022-11-11T17:13:28.075Z,96891.84
2022-11-11T17:17:11.842Z,96893.31
2022-11-11T17:20:54.803Z,96894.44
2022-11-11T17:24:37.642Z,96896.91
2022-11-11T17:28:22.400Z,96894.44
2022-11-11T17:32:05.336Z,96899.00
2022-11-11T17:35:52.228Z,96895.31
2022-11-11T17:39:34.895Z,96908.97
2022-11-11T17:43:17.812Z,96906.94
2022-11-11T17:47:01.804Z,96905.25
2022-11-11T17:50:44.639Z,96903.69
2022-11-11T17:54:28.422Z,96893.50
2022-11-11T17:58:13.487Z,96896.81
2022-11-11T18:01:56.434Z,96900.28
2022-11-11T18:05:40.484Z,96897.44
2022-11-11T18:09:23.615Z,96896.66
2022-11-11T18:13:06.560Z,96900.88
2022-11-11T18:16:49.284Z,96901.38
2022-11-11T18:20:32.014Z,96896.50
2022-11-11T18:24:31.735Z,96893.56
2022-11-11T18:28:14.460Z,96891.41
2022-11-11T18:32:00.114Z,96886.47
2022-11-11T18:35:45.071Z,96879.88
2022-11-11T18:39:38.455Z,96873.59
2022-11-11T18:43:21.155Z,96873.06
2022-11-11T18:47:03.970Z,96876.00
2022-11-11T18:50:54.237Z,96894.44
2022-11-11T18:54:41.261Z,96899.22
2022-11-11T18:58:23.899Z,96893.34
2022-11-11T19:02:06.811Z,96887.81
2022-11-11T19:05:49.495Z,96884.19
2022-11-11T19:09:47.673Z,96872.88
2022-11-11T19:13:32.166Z,96875.97
2022-11-11T19:17:15.424Z,96878.53
2022-11-11T19:20:58.083Z,96882.34
2022-11-11T19:24:58.662Z,96894.38
2022-11-11T19:28:43.363Z,96896.84
2022-11-11T19:32:26.079Z,96887.19
2022-11-11T19:36:11.070Z,96895.31
2022-11-11T19:40:11.787Z,96902.31
2022-11-11T19:43:56.457Z,96900.41
2022-11-11T19:47:39.248Z,96903.34
2022-11-11T19:51:24.941Z,96904.53
2022-11-11T19:55:08.146Z,96910.53
2022-11-11T19:58:50.847Z,96902.88
2022-11-11T20:02:34.890Z,96906.28
2022-11-11T20:06:22.642Z,96903.91
2022-11-11T20:10:16.743Z,96898.59
2022-11-11T20:14:00.050Z,96894.06
2022-11-11T20:17:44.179Z,96898.50
2022-11-11T20:21:27.409Z,96898.19
2022-11-11T20:25:13.828Z,96893.91
2022-11-11T20:28:57.444Z,96901.78
2022-11-11T20:32:40.871Z,96890.63
2022-11-11T20:36:25.203Z,96895.88
2022-11-11T20:40:22.853Z,96898.06
2022-11-11T20:44:05.718Z,96907.75
2022-11-11T20:47:48.400Z,96906.41
2022-11-11T20:51:32.420Z,96925.34
2022-11-11T20:55:29.949Z,96923.00
2022-11-11T20:59:13.164Z,96918.91
2022-11-11T21:02:56.085Z,96911.47
2022-11-11T21:06:40.184Z,96910.44
2022-11-11T21:10:43.368Z,96904.97
2022-11-11T21:14:26.308Z,96901.22
2022-11-11T21:18:09.019Z,96881.94
2022-11-11T21:21:53.139Z,96879.09
2022-11-11T21:25:45.457Z,96874.97
2022-11-11T21:29:28.174Z,96880.81
2022-11-11T21:33:11.924Z,96876.16
2022-11-11T21:36:55.919Z,96880.94
2022-11-11T21:41:03.497Z,96883.34
2022-11-11T21:44:46.510Z,96878.47
2022-11-11T21:48:30.008Z,96891.25
2022-11-11T21:52:14.337Z,96898.13
2022-11-11T21:56:02.027Z,96895.44
2022-11-11T21:59:44.713Z,96899.56
2022-11-11T22:03:27.496Z,96897.00
2022-11-11T22:07:12.044Z,96897.03
2022-11-11T22:11:13.822Z,96878.19
2022-11-11T22:14:56.486Z,96895.00
2022-11-11T22:18:44.239Z,96890.06
2022-11-11T22:22:30.328Z,96890.22
2022-11-11T22:26:22.578Z,96882.06
2022-11-11T22:30:06.048Z,96884.59
2022-11-11T22:33:48.962Z,96877.41
2022-11-11T22:37:31.595Z,96862.84
2022-11-11T22:41:29.039Z,96865.16
2022-11-11T22:45:12.016Z,96856.25
2022-11-11T22:48:56.040Z,96856.81
2022-11-11T22:52:38.728Z,96859.88
2022-11-11T22:56:29.765Z,96860.41
2022-11-11T23:00:14.661Z,96868.69
2022-11-11T23:03:58.894Z,96888.94
2022-11-11T23:07:41.558Z,96874.78
2022-11-11T23:11:34.582Z,96866.81
2022-11-11T23:15:20.061Z,96878.91
2022-11-11T23:19:07.402Z,96868.22
2022-11-11T23:22:50.099Z,96869.88
2022-11-11T23:26:39.966Z,96871.00
2022-11-11T23:30:22.643Z,96868.50
2022-11-11T23:34:08.873Z,96867.97
2022-11-11T23:37:51.541Z,96861.91
2022-11-11T23:45:46.793Z,96861.25
2022-11-11T23:49:29.415Z,96861.09
2022-11-11T23:53:12.352Z,96853.41
2022-11-11T23:56:54.965Z,96859.19
